logo
Search for airport 
image banner adimage banner adimage banner ad
image banner ad

SI2G - Fazenda Sao Joao

Located in Marianopolis Do Tocantins, Brazil

ICAO - SI2G, IATA -

Data provided by Airmate  

General information

Coordinates: S9°43'32" W49°46'46"
Elevation is 606 feet MSL.
Magnetic variation is -21.166666667° East
View others Airports in Tocatins

Operational data

Special qualification required
Current time UTC:
Current local time:
Weather at : - ( 0 km )
METAR: UHMM 141635Z 23002MPS 5000 0500W R10/0500N PRFG OVC002 11/11 Q1009 RMK QBB080 QFE742 R28/00000MPS
View NOTAMs / SUP AIP / TFR affecting this airport [VIEW]
Communications frequencies: [VIEW]

Runways:

RWY identifierQFULength (ft)Width (ft)SurfaceLDA (ft)
06328159GRAVEL
24328159GRAVEL

Airport contact information

Address: Marianopolis Do Tocantins Brazil

Satellite view of SI2G